»·PEaware :: SWA381 KDAL-KSNA

SWA381 :: KDAL-KSNA

FLIGHT INFORMATION

Flight Status: Arrived
Operator:
Southwest Airlines
More flights by this operator :: More flights under this callsign
Pilot: Tristan Z. (4790)
Aircraft: BOEING 737-700
(B737)
More flights by this aircraft type
Origin: KDAL Dallas Love
United States
Destination: KSNA John Wayne-Orange Co
United States
More flights between these airports :: More routes between these airports
Route: +KKITY5 BRHMA CNX J74 SJN HIMDU DSNEE4
File this flight plan on PilotEdge
Remarks:
Altitude:
(Current/Filed)
38,000ft
Speed:
(Current/Filed)
450kts
Departed: 01-Nov-20 06:03 PM
Arrived: 01-Nov-20 08:53 PM
Distance/Time
Traveled:
1054nm/2:50
Distance/Time
To Go:
Arrived

Flight Plot

Page will automatically refresh every two minutes.

Flight plan parsing failed; only flown route is shown


Map Options




Map Legend


Flown Route
Filed Route
Departure Airport
Arrival Airport
Navaid (VOR, NDB)
Fix

Horizontal Profiles

Position Reports

Time Latitude Longitude Heading Altitude Ground
Speed
01-Nov-20 17:53 32.846317 -96.847502 245 492ft 0kts
01-Nov-20 17:54 32.846317 -96.847502 245 492ft 0kts
01-Nov-20 17:55 32.846317 -96.847502 245 491ft 0kts
01-Nov-20 17:55 32.846317 -96.847502 245 491ft 0kts
01-Nov-20 17:56 32.846317 -96.847502 245 492ft 0kts
01-Nov-20 17:58 32.846530 -96.846942 245 492ft 1kts
01-Nov-20 17:59 32.846536 -96.846926 245 491ft 0kts
01-Nov-20 17:59 32.846963 -96.847401 320 492ft 11kts
01-Nov-20 18:00 32.850568 -96.852115 316 491ft 24kts
01-Nov-20 18:01 32.855093 -96.857008 319 492ft 22kts
01-Nov-20 18:02 32.853359 -96.852284 135 492ft 102kts
01-Nov-20 18:03 32.817032 -96.812069 137 2528ft 214kts
01-Nov-20 18:04 32.764614 -96.756167 136 5714ft 274kts
01-Nov-20 18:05 32.696659 -96.714919 184 9418ft 297kts
01-Nov-20 18:06 32.625044 -96.765310 248 12065ft 334kts
01-Nov-20 18:07 32.615189 -96.873667 274 15410ft 340kts
01-Nov-20 18:08 32.615829 -96.986427 274 18592ft 349kts
01-Nov-20 18:09 32.616189 -97.102651 273 21472ft 359kts
01-Nov-20 18:10 32.616454 -97.222420 273 24061ft 367kts
01-Nov-20 18:11 32.625152 -97.343757 289 26428ft 371kts
01-Nov-20 18:12 32.667078 -97.456964 295 28502ft 380kts
01-Nov-20 18:13 32.713105 -97.571080 294 30368ft 388kts
01-Nov-20 18:14 32.759371 -97.686412 292 32491ft 385kts
01-Nov-20 18:15 32.794915 -97.804178 283 34614ft 375kts
01-Nov-20 18:16 32.822570 -97.922955 283 36391ft 371kts
01-Nov-20 18:17 32.850085 -98.040891 283 37807ft 370kts
01-Nov-20 18:18 32.877690 -98.159818 283 38475ft 384kts
01-Nov-20 18:19 32.906767 -98.286025 283 38476ft 400kts
01-Nov-20 18:20 32.935810 -98.412138 283 38484ft 395kts
01-Nov-20 18:21 32.964826 -98.538604 283 38504ft 397kts
01-Nov-20 18:22 32.993760 -98.665367 283 38512ft 395kts
01-Nov-20 18:23 33.022457 -98.791967 283 38517ft 395kts
01-Nov-20 18:24 33.050867 -98.917687 283 38517ft 394kts
01-Nov-20 18:25 33.079188 -99.043654 283 38517ft 394kts
01-Nov-20 18:26 33.107356 -99.169561 283 38519ft 393kts
01-Nov-20 18:27 33.135332 -99.295200 283 38518ft 391kts
01-Nov-20 18:28 33.163158 -99.420849 283 38511ft 392kts
01-Nov-20 18:29 33.190870 -99.546674 283 38506ft 392kts
01-Nov-20 18:30 33.218533 -99.672149 283 38512ft 390kts
01-Nov-20 18:31 33.246903 -99.797345 283 38510ft 392kts
01-Nov-20 18:32 33.275305 -99.923025 283 38504ft 390kts
01-Nov-20 18:33 33.303374 -100.047911 283 38503ft 390kts
01-Nov-20 18:34 33.331439 -100.173379 283 38518ft 392kts
01-Nov-20 18:35 33.359373 -100.298929 283 38533ft 389kts
01-Nov-20 18:36 33.387246 -100.424862 283 38537ft 393kts
01-Nov-20 18:37 33.415062 -100.551165 283 38532ft 391kts
01-Nov-20 18:38 33.442459 -100.676308 283 38544ft 391kts
01-Nov-20 18:39 33.469989 -100.802857 283 38543ft 392kts
01-Nov-20 18:40 33.497450 -100.929570 282 38534ft 393kts
01-Nov-20 18:41 33.524673 -101.056170 281 38527ft 397kts
01-Nov-20 18:42 33.550251 -101.185484 281 38514ft 396kts
01-Nov-20 18:43 33.576017 -101.313154 281 38509ft 396kts
01-Nov-20 18:44 33.601825 -101.441874 281 38506ft 397kts
01-Nov-20 18:45 33.627375 -101.570010 281 38506ft 396kts
01-Nov-20 18:46 33.652828 -101.698602 281 38516ft 396kts
01-Nov-20 18:47 33.678187 -101.827362 280 38515ft 397kts
01-Nov-20 18:48 33.703462 -101.956370 281 38513ft 395kts
01-Nov-20 18:49 33.728446 -102.084614 281 38512ft 397kts
01-Nov-20 18:50 33.753475 -102.213872 281 38510ft 396kts
01-Nov-20 18:51 33.778215 -102.342407 280 38506ft 395kts
01-Nov-20 18:52 33.802947 -102.471645 280 38506ft 397kts
01-Nov-20 18:53 33.827529 -102.600884 280 38508ft 396kts
01-Nov-20 18:54 33.851921 -102.730193 280 38527ft 397kts
01-Nov-20 18:55 33.876249 -102.859672 280 38524ft 396kts
01-Nov-20 18:56 33.900312 -102.988509 280 38523ft 397kts
01-Nov-20 18:57 33.924514 -103.118870 280 38521ft 403kts
01-Nov-20 18:58 33.949022 -103.251631 280 38520ft 407kts
01-Nov-20 18:59 33.973341 -103.384257 280 38517ft 406kts
01-Nov-20 19:00 33.997542 -103.517119 280 38516ft 406kts
01-Nov-20 19:01 34.021593 -103.649992 280 38515ft 406kts
01-Nov-20 19:02 34.045500 -103.783259 279 38525ft 406kts
01-Nov-20 19:03 34.069243 -103.916190 279 38523ft 406kts
01-Nov-20 19:04 34.092860 -104.049229 279 38510ft 406kts
01-Nov-20 19:05 34.116320 -104.182270 279 38495ft 405kts
01-Nov-20 19:06 34.139676 -104.315569 279 38496ft 406kts
01-Nov-20 19:07 34.162852 -104.448743 279 38497ft 405kts
01-Nov-20 19:08 34.185809 -104.581529 279 38498ft 406kts
01-Nov-20 19:09 34.208711 -104.715115 279 38511ft 406kts
01-Nov-20 19:10 34.231500 -104.848950 279 38512ft 406kts
01-Nov-20 19:11 34.254116 -104.982432 279 38512ft 410kts
01-Nov-20 19:12 34.277218 -105.119517 279 38510ft 420kts
01-Nov-20 19:13 34.300354 -105.257734 279 38540ft 420kts
01-Nov-20 19:14 34.323267 -105.395793 279 38562ft 420kts
01-Nov-20 19:15 34.346149 -105.534594 279 38585ft 420kts
01-Nov-20 19:16 34.367305 -105.673122 268 38617ft 416kts
01-Nov-20 19:17 34.371084 -105.812882 270 38613ft 416kts
01-Nov-20 19:18 34.375229 -105.953363 270 38577ft 417kts
01-Nov-20 19:19 34.379205 -106.093317 270 38528ft 416kts
01-Nov-20 19:20 34.382991 -106.233613 270 38519ft 418kts
01-Nov-20 19:21 34.386263 -106.359665 270 38520ft 427kts
01-Nov-20 19:22 34.389827 -106.502490 270 38516ft 421kts
01-Nov-20 19:23 34.393194 -106.644275 270 38516ft 423kts
01-Nov-20 19:24 34.395980 -106.786336 270 38523ft 423kts
01-Nov-20 19:25 34.399012 -106.928746 269 38523ft 425kts
01-Nov-20 19:26 34.401896 -107.072323 269 38522ft 430kts
01-Nov-20 19:27 34.404675 -107.216870 269 38517ft 430kts
01-Nov-20 19:28 34.407242 -107.360910 269 38522ft 428kts
01-Nov-20 19:29 34.409638 -107.504491 269 38523ft 427kts
01-Nov-20 19:30 34.411870 -107.648391 269 38557ft 429kts
01-Nov-20 19:31 34.413907 -107.792285 268 38604ft 428kts
01-Nov-20 19:32 34.415826 -107.936514 268 38604ft 427kts
01-Nov-20 19:33 34.417542 -108.080018 269 38602ft 428kts
01-Nov-20 19:34 34.418567 -108.224397 268 38601ft 430kts
01-Nov-20 19:36 34.419903 -108.368455 268 38586ft 427kts
01-Nov-20 19:37 34.421087 -108.512457 269 38567ft 427kts
01-Nov-20 19:38 34.422174 -108.655884 268 38556ft 427kts
01-Nov-20 19:39 34.423003 -108.799518 268 38533ft 428kts
01-Nov-20 19:40 34.423742 -108.944409 268 38480ft 428kts
01-Nov-20 19:41 34.424292 -109.088362 268 38467ft 430kts
01-Nov-20 19:42 34.425365 -109.233323 268 38464ft 433kts
01-Nov-20 19:43 34.427488 -109.379179 268 38462ft 432kts
01-Nov-20 19:44 34.429357 -109.522153 268 38462ft 433kts
01-Nov-20 19:45 34.431149 -109.669929 268 38464ft 433kts
01-Nov-20 19:46 34.432706 -109.815879 268 38494ft 432kts
01-Nov-20 19:47 34.434116 -109.961050 268 38520ft 432kts
01-Nov-20 19:48 34.435331 -110.106965 268 38508ft 433kts
01-Nov-20 19:49 34.436390 -110.252034 268 38503ft 432kts
01-Nov-20 19:50 34.437297 -110.397554 268 38499ft 433kts
01-Nov-20 19:51 34.438008 -110.543668 268 38491ft 433kts
01-Nov-20 19:51 34.438478 -110.664487 267 38485ft 431kts
01-Nov-20 19:53 34.438886 -110.834373 267 38463ft 432kts
01-Nov-20 19:54 34.439103 -110.979533 267 38454ft 432kts
01-Nov-20 19:54 34.439127 -111.100715 266 38455ft 433kts
01-Nov-20 19:55 34.439004 -111.246458 266 38455ft 432kts
01-Nov-20 19:57 34.438662 -111.416175 266 38453ft 433kts
01-Nov-20 19:57 34.438270 -111.537716 266 38447ft 432kts
01-Nov-20 19:58 34.437646 -111.682992 266 38437ft 432kts
01-Nov-20 20:00 34.436673 -111.853017 266 38413ft 432kts
01-Nov-20 20:00 34.435857 -111.973952 266 38402ft 432kts
01-Nov-20 20:01 34.434724 -112.119465 266 38392ft 432kts
01-Nov-20 20:02 34.433421 -112.264775 266 38392ft 432kts
01-Nov-20 20:03 34.431957 -112.410499 266 38391ft 432kts
01-Nov-20 20:04 34.430330 -112.555689 266 38389ft 432kts
01-Nov-20 20:05 34.428512 -112.701327 265 38394ft 432kts
01-Nov-20 20:06 34.426516 -112.846388 265 38393ft 431kts
01-Nov-20 20:07 34.424358 -112.992268 264 38392ft 434kts
01-Nov-20 20:08 34.422036 -113.138924 264 38392ft 436kts
01-Nov-20 20:09 34.419544 -113.285292 264 38391ft 435kts
01-Nov-20 20:10 34.416883 -113.431591 264 38260ft 436kts
01-Nov-20 20:11 34.414048 -113.578225 264 38147ft 435kts
01-Nov-20 20:12 34.411008 -113.724547 263 38140ft 435kts
01-Nov-20 20:13 34.407752 -113.871170 263 38136ft 435kts
01-Nov-20 20:14 34.399075 -114.015961 251 38155ft 427kts
01-Nov-20 20:15 34.370888 -114.155871 251 38135ft 428kts
01-Nov-20 20:16 34.340386 -114.295039 251 38134ft 428kts
01-Nov-20 20:17 34.310004 -114.434059 251 38133ft 428kts
01-Nov-20 20:18 34.279644 -114.572896 251 38133ft 428kts
01-Nov-20 20:19 34.248906 -114.712133 250 38136ft 427kts
01-Nov-20 20:20 34.217117 -114.850480 250 38134ft 427kts
01-Nov-20 20:21 34.185459 -114.989114 250 38137ft 431kts
01-Nov-20 20:22 34.154337 -115.129294 250 38127ft 434kts
01-Nov-20 20:23 34.122785 -115.270377 250 38151ft 435kts
01-Nov-20 20:24 34.091163 -115.410959 250 38236ft 435kts
01-Nov-20 20:25 34.059362 -115.551521 250 38249ft 435kts
01-Nov-20 20:26 34.036801 -115.695680 256 38222ft 438kts
01-Nov-20 20:27 34.016573 -115.840381 255 38197ft 438kts
01-Nov-20 20:28 33.996293 -115.984029 255 37089ft 434kts
01-Nov-20 20:29 33.975871 -116.127404 255 33816ft 438kts
01-Nov-20 20:30 33.956016 -116.273242 257 30167ft 443kts
01-Nov-20 20:31 33.938547 -116.415568 257 27768ft 419kts
01-Nov-20 20:32 33.921631 -116.552082 257 25114ft 408kts
01-Nov-20 20:33 33.904512 -116.684581 256 22036ft 394kts
01-Nov-20 20:34 33.888924 -116.812259 258 18347ft 379kts
01-Nov-20 20:35 33.875777 -116.934173 259 15125ft 356kts
01-Nov-20 20:36 33.862771 -117.051304 260 14055ft 363kts
01-Nov-20 20:37 33.849717 -117.168953 261 11829ft 362kts
01-Nov-20 20:38 33.837293 -117.279868 261 10374ft 321kts
01-Nov-20 20:39 33.826281 -117.377105 262 9071ft 278kts
01-Nov-20 20:40 33.813547 -117.462750 250 7887ft 250kts
01-Nov-20 20:41 33.795498 -117.533911 270 7625ft 215kts
01-Nov-20 20:42 33.795552 -117.604847 273 7610ft 214kts
01-Nov-20 20:43 33.819170 -117.668008 301 6683ft 215kts
01-Nov-20 20:44 33.853452 -117.715681 355 5279ft 196kts
01-Nov-20 20:45 33.898648 -117.733619 279 3907ft 192kts
01-Nov-20 20:46 33.862623 -117.770592 184 3196ft 195kts
01-Nov-20 20:47 33.811549 -117.780629 207 2975ft 184kts
01-Nov-20 20:48 33.770002 -117.809010 207 2037ft 165kts
01-Nov-20 20:49 33.733907 -117.831919 207 1253ft 154kts
01-Nov-20 20:50 33.700680 -117.852976 207 517ft 130kts
01-Nov-20 20:51 33.680604 -117.865744 207 77ft 127kts
01-Nov-20 20:52 33.670424 -117.872149 193 64ft 33kts
01-Nov-20 20:53 33.670719 -117.869256 39 64ft 26kts
01-Nov-20 20:54 33.675098 -117.865819 25 64ft 30kts
01-Nov-20 20:55 33.676105 -117.864425 118 64ft 0kts
01-Nov-20 20:56 33.676105 -117.864425 117 64ft 0kts

Navigation Log

Ident Type
Flight plan parsing failed, navigation log unavailable